createdAt,value
2022-10-13T00:01:13.401Z,10.98
2022-10-13T00:03:42.025Z,11.35
2022-10-13T00:06:11.156Z,10.80
2022-10-13T00:08:38.863Z,11.15
2022-10-13T00:11:17.253Z,10.00
2022-10-13T00:13:45.388Z,10.80
2022-10-13T00:16:14.433Z,9.95
2022-10-13T00:18:42.169Z,10.93
2022-10-13T00:21:12.519Z,10.90
2022-10-13T00:26:09.044Z,10.88
2022-10-13T00:28:36.608Z,9.75
2022-10-13T00:31:03.818Z,10.02
2022-10-13T00:33:30.833Z,9.93
2022-10-13T00:35:57.828Z,10.00
2022-10-13T00:38:24.872Z,9.80
2022-10-13T00:40:55.040Z,10.77
2022-10-13T00:43:25.237Z,10.30
2022-10-13T00:45:53.264Z,10.35
2022-10-13T00:48:28.429Z,10.57
2022-10-13T00:50:58.352Z,10.95
2022-10-13T00:53:32.748Z,11.35
2022-10-13T00:55:59.895Z,10.25
2022-10-13T00:58:32.979Z,9.98
2022-10-13T01:01:00.166Z,10.82
2022-10-13T01:03:27.720Z,10.45
2022-10-13T01:05:59.352Z,10.25
2022-10-13T01:08:27.440Z,9.65
2022-10-13T01:11:22.862Z,9.65
2022-10-13T01:14:09.547Z,10.20
2022-10-13T01:17:05.431Z,10.02
2022-10-13T01:20:06.252Z,9.93
2022-10-13T01:23:12.988Z,9.70
2022-10-13T01:26:18.544Z,10.63
2022-10-13T01:29:25.253Z,9.88
2022-10-13T01:32:23.370Z,9.32
2022-10-13T01:35:03.344Z,9.70
2022-10-13T01:37:38.075Z,10.18
2022-10-13T01:40:24.115Z,9.68
2022-10-13T01:43:14.947Z,9.63
2022-10-13T01:45:57.123Z,9.55
2022-10-13T01:48:26.224Z,10.13
2022-10-13T01:50:55.744Z,9.77
2022-10-13T01:53:24.011Z,9.90
2022-10-13T01:55:53.262Z,9.20
2022-10-13T01:58:21.865Z,9.18
2022-10-13T02:01:06.242Z,9.70
2022-10-13T02:04:07.240Z,9.68
2022-10-13T02:06:51.971Z,8.95
2022-10-13T02:09:43.929Z,10.23
2022-10-13T02:12:39.871Z,9.38
2022-10-13T02:15:09.345Z,9.20
2022-10-13T02:17:36.748Z,9.13
2022-10-13T02:20:06.803Z,9.10
2022-10-13T02:22:40.908Z,9.30
2022-10-13T02:25:08.893Z,9.13
2022-10-13T02:27:35.946Z,9.23
2022-10-13T02:30:03.018Z,9.23
2022-10-13T02:32:30.128Z,8.98
2022-10-13T02:34:57.384Z,8.00
2022-10-13T02:37:25.905Z,8.88
2022-10-13T02:39:53.284Z,8.18
2022-10-13T02:42:20.815Z,8.43
2022-10-13T02:44:48.103Z,9.38
2022-10-13T02:47:15.171Z,9.52
2022-10-13T02:49:42.173Z,8.57
2022-10-13T02:52:09.194Z,9.00
2022-10-13T02:54:36.333Z,8.25
2022-10-13T02:57:03.458Z,7.70
2022-10-13T02:59:30.815Z,8.65
2022-10-13T03:01:57.847Z,8.93
2022-10-13T03:04:24.909Z,8.13
2022-10-13T03:06:51.929Z,8.30
2022-10-13T03:09:19.128Z,8.30
2022-10-13T03:11:46.620Z,8.38
2022-10-13T03:14:13.668Z,8.82
2022-10-13T03:16:40.683Z,8.00
2022-10-13T03:19:07.704Z,8.45
2022-10-13T03:21:34.776Z,8.52
2022-10-13T03:24:01.765Z,7.82
2022-10-13T03:26:28.931Z,7.85
2022-10-13T03:28:55.978Z,7.85
2022-10-13T03:31:23.262Z,8.00
2022-10-13T03:33:50.661Z,8.30
2022-10-13T03:36:18.494Z,8.23
2022-10-13T03:38:45.692Z,8.18
2022-10-13T03:41:17.958Z,8.10
2022-10-13T03:43:45.850Z,7.10
2022-10-13T03:46:14.804Z,7.18
2022-10-13T03:48:42.430Z,7.68
2022-10-13T03:51:15.528Z,7.85
2022-10-13T03:53:42.633Z,8.15
2022-10-13T03:56:15.575Z,7.53
2022-10-13T03:58:43.177Z,7.55
2022-10-13T04:01:12.822Z,7.85
2022-10-13T04:03:40.317Z,7.82
2022-10-13T04:06:07.555Z,7.70
2022-10-13T04:08:34.869Z,7.75
2022-10-13T04:11:04.388Z,6.95
2022-10-13T04:13:32.004Z,7.28
2022-10-13T04:16:03.755Z,6.85
2022-10-13T04:18:31.272Z,7.35
2022-10-13T04:20:58.351Z,8.43
2022-10-13T04:23:25.470Z,7.43
2022-10-13T04:25:52.515Z,7.38
2022-10-13T04:28:19.581Z,7.20
2022-10-13T04:30:49.384Z,7.20
2022-10-13T04:33:17.043Z,6.72
2022-10-13T04:35:44.228Z,7.40
2022-10-13T04:38:11.306Z,7.38
2022-10-13T04:40:38.448Z,8.05
2022-10-13T04:43:05.509Z,7.40
2022-10-13T04:45:32.597Z,7.80
2022-10-13T04:48:01.300Z,7.13
2022-10-13T04:50:28.853Z,6.95
2022-10-13T04:52:55.899Z,8.15
2022-10-13T04:55:22.960Z,7.38
2022-10-13T04:57:49.957Z,7.60
2022-10-13T05:00:17.486Z,7.13
2022-10-13T05:02:44.586Z,7.07
2022-10-13T05:05:11.805Z,7.60
2022-10-13T05:07:38.810Z,6.82
2022-10-13T05:10:06.019Z,7.65
2022-10-13T05:12:33.132Z,7.32
2022-10-13T05:15:00.926Z,7.68
2022-10-13T05:17:35.027Z,7.60
2022-10-13T05:20:02.767Z,8.15
2022-10-13T05:29:54.275Z,8.02
2022-10-13T05:39:15.084Z,7.40
2022-10-13T05:42:51.373Z,7.38
2022-10-13T05:54:33.872Z,7.55
2022-10-13T05:57:06.128Z,7.88
2022-10-13T05:59:41.987Z,7.70
2022-10-13T06:02:12.398Z,7.97
2022-10-13T06:04:44.801Z,8.40
2022-10-13T06:07:12.783Z,7.15
2022-10-13T06:09:41.509Z,8.20
2022-10-13T06:12:09.726Z,7.88
2022-10-13T06:14:36.935Z,7.95
2022-10-13T06:29:11.121Z,7.90
2022-10-13T06:31:38.208Z,7.82
2022-10-13T06:34:05.296Z,7.07
2022-10-13T06:36:32.315Z,8.50
2022-10-13T06:38:59.314Z,7.65
2022-10-13T06:41:26.560Z,7.95
2022-10-13T06:43:53.565Z,8.00
2022-10-13T06:46:20.711Z,7.63
2022-10-13T06:48:51.214Z,7.82
2022-10-13T06:51:18.260Z,7.60
2022-10-13T06:53:45.556Z,7.60
2022-10-13T06:56:14.348Z,7.43
2022-10-13T06:58:41.351Z,7.88
2022-10-13T07:01:09.309Z,7.75
2022-10-13T07:03:36.408Z,7.60
2022-10-13T07:06:05.270Z,8.32
2022-10-13T07:08:33.156Z,7.93
2022-10-13T07:11:00.309Z,6.93
2022-10-13T07:13:27.727Z,7.22
2022-10-13T07:15:54.897Z,8.20
2022-10-13T07:18:22.039Z,7.40
2022-10-13T07:20:49.115Z,8.32
2022-10-13T07:23:16.141Z,8.32
2022-10-13T07:25:43.167Z,7.50
2022-10-13T07:28:10.240Z,7.82
2022-10-13T07:30:39.623Z,7.68
2022-10-13T07:33:07.217Z,7.63
2022-10-13T07:35:34.389Z,8.82
2022-10-13T07:49:31.547Z,8.05
2022-10-13T07:51:58.601Z,8.00
2022-10-13T07:54:27.509Z,8.15
2022-10-13T07:56:56.083Z,7.30
2022-10-13T08:03:04.361Z,7.32
2022-10-13T08:05:31.378Z,7.57
2022-10-13T08:07:58.781Z,7.90
2022-10-13T08:10:26.590Z,7.63
2022-10-13T08:12:53.656Z,7.05
2022-10-13T08:15:20.737Z,6.78
2022-10-13T08:38:07.795Z,7.53
2022-10-13T08:40:35.357Z,7.82
2022-10-13T08:43:07.447Z,7.25
2022-10-13T08:45:42.484Z,7.43
2022-10-13T08:48:21.946Z,6.63
2022-10-13T08:50:54.467Z,7.67
2022-10-13T08:53:31.470Z,6.60
2022-10-13T08:56:10.477Z,6.80
2022-10-13T08:58:40.885Z,7.28
2022-10-13T09:01:15.723Z,5.82
2022-10-13T09:03:55.351Z,6.40
2022-10-13T09:06:29.023Z,7.63
2022-10-13T09:09:02.556Z,7.55
2022-10-13T09:11:34.322Z,7.40
2022-10-13T09:14:08.973Z,6.72
2022-10-13T09:16:45.114Z,6.95
2022-10-13T09:19:17.731Z,5.97
2022-10-13T09:21:45.723Z,6.28
2022-10-13T09:24:16.362Z,7.53
2022-10-13T09:26:46.898Z,7.85
2022-10-13T09:29:21.712Z,8.38
2022-10-13T09:31:48.900Z,6.93
2022-10-13T09:34:25.935Z,7.45
2022-10-13T09:37:01.243Z,6.75
2022-10-13T09:39:29.183Z,6.18
2022-10-13T09:42:25.819Z,7.13
2022-10-13T09:45:14.985Z,6.38
2022-10-13T09:47:49.427Z,7.25
2022-10-13T09:50:19.546Z,6.60
2022-10-13T09:52:48.136Z,6.13
2022-10-13T09:55:34.521Z,6.85
2022-10-13T09:58:16.190Z,6.93
2022-10-13T10:00:43.838Z,6.95
2022-10-13T10:03:28.034Z,6.93
2022-10-13T10:05:58.170Z,6.50
2022-10-13T10:11:41.591Z,7.00
2022-10-13T10:14:26.374Z,7.72
2022-10-13T10:17:23.515Z,6.53
2022-10-13T10:20:10.288Z,6.88
2022-10-13T10:23:06.194Z,8.00
2022-10-13T10:25:59.411Z,6.97
2022-10-13T10:29:00.942Z,6.65
2022-10-13T10:31:49.820Z,7.18
2022-10-13T10:34:50.734Z,6.38
2022-10-13T10:37:39.952Z,5.95
2022-10-13T10:40:34.872Z,6.25
2022-10-13T10:43:26.430Z,7.30
2022-10-13T10:45:57.908Z,7.15
2022-10-13T10:48:33.117Z,6.53
2022-10-13T10:51:01.318Z,6.53
2022-10-13T10:53:45.359Z,6.88
2022-10-13T10:56:38.494Z,5.93
2022-10-13T10:59:36.737Z,7.10
2022-10-13T11:02:34.171Z,5.95
2022-10-13T11:05:06.084Z,6.43
2022-10-13T11:07:55.630Z,6.60
2022-10-13T11:10:23.609Z,6.57
2022-10-13T11:13:17.495Z,7.10
2022-10-13T11:15:46.481Z,5.65
2022-10-13T11:18:53.305Z,6.18
2022-10-13T11:21:20.612Z,5.82
2022-10-13T11:23:49.715Z,5.63
2022-10-13T11:26:31.350Z,6.40
2022-10-13T11:28:59.829Z,6.40
2022-10-13T11:31:35.929Z,5.43
2022-10-13T11:34:04.003Z,5.75
2022-10-13T11:36:55.784Z,5.32
2022-10-13T11:39:50.424Z,6.45
2022-10-13T11:42:36.218Z,5.75
2022-10-13T11:45:22.889Z,6.57
2022-10-13T11:48:28.458Z,5.82
2022-10-13T11:51:23.942Z,5.63
2022-10-13T11:54:13.213Z,5.97
2022-10-13T11:56:53.323Z,5.83
2022-10-13T11:59:33.138Z,5.95
2022-10-13T12:02:19.463Z,5.70
2022-10-13T12:05:05.362Z,6.35
2022-10-13T12:07:36.364Z,6.38
2022-10-13T12:10:07.487Z,6.03
2022-10-13T12:12:35.790Z,6.10
2022-10-13T12:15:06.799Z,7.03
2022-10-13T12:17:39.183Z,6.15
2022-10-13T12:20:23.459Z,6.13
2022-10-13T12:22:53.236Z,6.07
2022-10-13T12:25:23.081Z,6.18
2022-10-13T12:27:55.910Z,6.10
2022-10-13T12:30:26.338Z,5.85
2022-10-13T12:32:56.698Z,5.53
2022-10-13T12:35:29.935Z,6.30
2022-10-13T12:38:00.367Z,6.30
2022-10-13T12:40:28.632Z,6.75
2022-10-13T12:42:56.743Z,5.22
2022-10-13T12:45:31.650Z,5.93
2022-10-13T12:47:58.806Z,6.55
2022-10-13T12:50:36.650Z,6.43
2022-10-13T12:53:24.160Z,6.30
2022-10-13T12:55:59.249Z,6.32
2022-10-13T12:58:30.668Z,6.32
2022-10-13T13:01:18.951Z,6.22
2022-10-13T13:03:54.195Z,5.95
2022-10-13T13:06:25.336Z,5.72
2022-10-13T13:09:19.865Z,6.65
2022-10-13T13:11:47.676Z,6.50
2022-10-13T13:14:38.357Z,5.85
2022-10-13T13:17:52.947Z,5.85
2022-10-13T13:20:31.874Z,7.00
2022-10-13T13:22:59.397Z,7.38
2022-10-13T13:25:27.594Z,6.55
2022-10-13T13:27:54.664Z,6.72
2022-10-13T13:30:23.428Z,6.13
2022-10-13T13:32:51.008Z,6.80
2022-10-13T13:35:18.746Z,7.03
2022-10-13T13:37:53.933Z,6.50
2022-10-13T13:40:24.080Z,6.85
2022-10-13T13:45:21.341Z,7.15
2022-10-13T13:50:20.540Z,7.60
2022-10-13T13:52:47.652Z,7.03
2022-10-13T13:55:15.043Z,6.88
2022-10-13T13:57:42.893Z,7.18
2022-10-13T14:00:15.741Z,6.75
2022-10-13T14:02:44.050Z,7.55
2022-10-13T14:05:12.564Z,6.38
2022-10-13T14:07:40.403Z,6.50
2022-10-13T14:10:09.226Z,7.10
2022-10-13T14:12:36.300Z,6.35
2022-10-13T14:15:03.577Z,7.03
2022-10-13T14:17:30.628Z,7.53
2022-10-13T14:19:57.915Z,7.32
2022-10-13T14:22:25.253Z,7.05
2022-10-13T14:24:52.914Z,6.65
2022-10-13T14:27:19.935Z,6.55
2022-10-13T14:29:47.339Z,7.22
2022-10-13T14:32:15.335Z,5.93
2022-10-13T14:34:42.928Z,6.30
2022-10-13T14:37:10.060Z,6.88
2022-10-13T14:39:37.076Z,6.40
2022-10-13T14:42:04.184Z,6.90
2022-10-13T14:44:31.583Z,6.53
2022-10-13T14:46:58.554Z,6.20
2022-10-13T14:49:25.589Z,7.00
2022-10-13T14:51:52.605Z,6.70
2022-10-13T14:54:19.842Z,7.47
2022-10-13T14:56:47.899Z,7.75
2022-10-13T14:59:15.112Z,6.60
2022-10-13T15:01:43.209Z,6.53
2022-10-13T15:04:10.668Z,7.38
2022-10-13T15:06:39.481Z,6.88
2022-10-13T15:11:36.685Z,7.13
2022-10-13T15:14:03.872Z,8.30
2022-10-13T15:16:37.717Z,7.57
2022-10-13T15:19:04.875Z,7.20
2022-10-13T15:21:31.915Z,7.15
2022-10-13T15:23:59.026Z,7.85
2022-10-13T15:26:26.076Z,7.43
2022-10-13T15:28:53.974Z,7.03
2022-10-13T15:31:22.352Z,7.43
2022-10-13T15:33:51.890Z,6.95
2022-10-13T15:36:20.267Z,7.70
2022-10-13T15:38:47.491Z,7.65
2022-10-13T15:41:14.645Z,7.65
2022-10-13T15:43:41.731Z,8.35
2022-10-13T15:46:12.454Z,8.00
2022-10-13T15:48:39.630Z,8.65
2022-10-13T15:51:15.323Z,7.75
2022-10-13T15:53:42.554Z,7.43
2022-10-13T15:56:09.707Z,7.88
2022-10-13T15:58:36.763Z,6.95
2022-10-13T16:01:12.164Z,8.15
2022-10-13T16:03:39.688Z,7.57
2022-10-13T16:06:09.292Z,8.10
2022-10-13T16:08:37.610Z,9.55
2022-10-13T16:11:12.857Z,7.95
2022-10-13T16:13:40.829Z,7.30
2022-10-13T16:16:08.526Z,7.88
2022-10-13T16:18:37.603Z,7.95
2022-10-13T16:21:23.642Z,7.00
2022-10-13T16:23:50.684Z,7.05
2022-10-13T16:26:18.416Z,7.97
2022-10-13T16:28:46.962Z,8.07
2022-10-13T16:31:16.636Z,8.35
2022-10-13T16:33:45.340Z,7.57
2022-10-13T16:36:19.682Z,7.68
2022-10-13T16:38:48.093Z,7.70
2022-10-13T16:41:18.291Z,8.18
2022-10-13T16:46:15.345Z,7.68
2022-10-13T16:48:44.303Z,7.68
2022-10-13T16:51:21.884Z,7.18
2022-10-13T16:53:59.838Z,7.40
2022-10-13T16:56:30.406Z,7.78
2022-10-13T16:59:00.376Z,7.28
2022-10-13T17:01:28.743Z,7.75
2022-10-13T17:03:56.604Z,7.55
2022-10-13T17:06:26.231Z,7.57
2022-10-13T17:08:53.368Z,8.38
2022-10-13T17:11:28.173Z,8.40
2022-10-13T17:13:57.325Z,7.45
2022-10-13T17:16:25.230Z,7.55
2022-10-13T17:18:52.242Z,7.13
2022-10-13T17:21:22.095Z,8.70
2022-10-13T17:23:49.742Z,7.93
2022-10-13T17:26:18.466Z,7.10
2022-10-13T17:28:45.852Z,6.93
2022-10-13T17:31:15.539Z,7.25
2022-10-13T17:33:43.555Z,7.20
2022-10-13T17:36:17.662Z,8.13
2022-10-13T17:38:45.868Z,7.57
2022-10-13T17:41:13.527Z,8.20
2022-10-13T17:43:41.487Z,7.70
2022-10-13T17:49:01.828Z,7.40
2022-10-13T17:51:28.983Z,7.38
2022-10-13T17:53:59.062Z,7.38
2022-10-13T17:56:26.871Z,7.13
2022-10-13T17:58:54.504Z,7.05
2022-10-13T18:01:33.655Z,8.10
2022-10-13T18:04:03.895Z,7.72
2022-10-13T18:06:38.046Z,7.90
2022-10-13T18:09:15.362Z,7.90
2022-10-13T18:11:48.723Z,7.78
2022-10-13T18:14:17.041Z,9.10
2022-10-13T18:16:44.138Z,8.27
2022-10-13T18:19:11.128Z,8.00
2022-10-13T18:21:38.120Z,8.50
2022-10-13T18:24:05.570Z,9.07
2022-10-13T18:26:35.827Z,8.20
2022-10-13T18:31:32.823Z,8.13
2022-10-13T18:34:03.689Z,8.63
2022-10-13T18:36:42.996Z,9.25
2022-10-13T18:39:19.051Z,9.02
2022-10-13T18:41:46.666Z,8.55
2022-10-13T18:44:15.448Z,9.13
2022-10-13T18:46:42.747Z,9.65
2022-10-13T18:49:12.963Z,9.70
2022-10-13T18:54:08.114Z,9.70
2022-10-13T18:56:37.066Z,10.52
2022-10-13T18:59:05.855Z,10.23
2022-10-13T19:01:35.600Z,10.27
2022-10-13T19:04:02.649Z,11.18
2022-10-13T19:06:32.484Z,10.35
2022-10-13T19:09:08.345Z,10.48
2022-10-13T19:11:36.198Z,11.80
2022-10-13T19:14:06.056Z,11.65
2022-10-13T19:16:37.205Z,11.70
2022-10-13T19:19:04.949Z,12.02
2022-10-13T19:21:32.784Z,11.32
2022-10-13T19:24:00.372Z,11.63
2022-10-13T19:26:30.951Z,11.35
2022-10-13T19:29:01.332Z,12.02
2022-10-13T19:31:30.870Z,11.93
2022-10-13T19:33:58.608Z,12.02
2022-10-13T19:36:37.728Z,12.55
2022-10-13T19:39:12.006Z,13.07
2022-10-13T19:41:39.432Z,12.55
2022-10-13T19:44:06.561Z,12.63
2022-10-13T19:46:35.728Z,12.90
2022-10-13T19:49:04.261Z,13.10
2022-10-13T19:51:31.552Z,12.45
2022-10-13T19:53:58.597Z,12.88
2022-10-13T19:56:31.713Z,12.77
2022-10-13T19:58:59.606Z,13.18
2022-10-13T20:01:27.024Z,13.20
2022-10-13T20:03:54.785Z,14.57
2022-10-13T20:06:22.232Z,13.75
2022-10-13T20:08:49.503Z,13.60
2022-10-13T20:11:23.486Z,14.18
2022-10-13T20:13:51.703Z,14.95
2022-10-13T20:16:21.498Z,14.13
2022-10-13T20:18:57.435Z,14.27
2022-10-13T20:21:25.834Z,14.93
2022-10-13T20:23:53.348Z,14.13
2022-10-13T20:26:21.429Z,15.43
2022-10-13T20:28:50.345Z,13.20
2022-10-13T20:31:19.981Z,15.60
2022-10-13T20:33:49.487Z,14.60
2022-10-13T20:36:18.074Z,14.10
2022-10-13T20:38:45.315Z,14.98
2022-10-13T20:41:28.455Z,13.90
2022-10-13T20:43:58.264Z,15.45
2022-10-13T20:46:25.959Z,14.95
2022-10-13T20:51:42.772Z,15.18
2022-10-13T20:54:11.697Z,15.60
2022-10-13T20:56:38.802Z,15.60
2022-10-13T20:59:07.775Z,15.10
2022-10-13T21:01:34.922Z,15.20
2022-10-13T21:04:01.973Z,15.48
2022-10-13T21:06:29.024Z,15.63
2022-10-13T21:08:56.505Z,14.35
2022-10-13T21:11:24.788Z,14.93
2022-10-13T21:13:52.511Z,14.98
2022-10-13T21:16:23.500Z,15.45
2022-10-13T21:18:51.755Z,15.45
2022-10-13T21:21:22.533Z,14.90
2022-10-13T21:23:53.948Z,14.85
2022-10-13T21:26:22.467Z,15.45
2022-10-13T21:28:50.791Z,15.23
2022-10-13T21:31:19.672Z,14.80
2022-10-13T21:33:46.684Z,14.00
2022-10-13T21:36:28.851Z,15.52
2022-10-13T21:38:59.832Z,15.57
2022-10-13T21:41:28.032Z,14.25
2022-10-13T21:43:55.823Z,15.65
2022-10-13T21:46:26.031Z,15.32
2022-10-13T21:48:55.314Z,15.07
2022-10-13T21:51:26.180Z,15.75
2022-10-13T21:53:55.076Z,14.50
2022-10-13T21:56:23.575Z,14.57
2022-10-13T21:58:50.693Z,14.85
2022-10-13T22:01:19.207Z,15.52
2022-10-13T22:03:47.397Z,14.32
2022-10-13T22:06:19.025Z,14.65
2022-10-13T22:08:49.093Z,15.07
2022-10-13T22:11:17.424Z,14.20
2022-10-13T22:13:44.438Z,13.90
2022-10-13T22:16:18.867Z,14.50
2022-10-13T22:18:46.154Z,14.43
2022-10-13T22:21:16.863Z,14.02
2022-10-13T22:23:44.925Z,14.80
2022-10-13T22:26:13.101Z,14.63
2022-10-13T22:28:40.565Z,14.10
2022-10-13T22:31:10.068Z,14.30
2022-10-13T22:33:39.298Z,14.90
2022-10-13T22:36:17.702Z,15.32
2022-10-13T22:38:46.327Z,13.77
2022-10-13T22:41:14.892Z,13.88
2022-10-13T22:43:44.498Z,13.90
2022-10-13T22:46:16.154Z,14.70
2022-10-13T22:48:44.121Z,14.25
2022-10-13T22:51:13.584Z,14.32
2022-10-13T22:53:40.542Z,13.93
2022-10-13T22:56:09.268Z,15.07
2022-10-13T22:58:36.541Z,14.15
2022-10-13T23:01:08.738Z,13.93
2022-10-13T23:03:36.217Z,13.35
2022-10-13T23:06:04.225Z,13.98
2022-10-13T23:08:31.772Z,13.73
2022-10-13T23:10:59.059Z,14.45
2022-10-13T23:13:26.639Z,13.43
2022-10-13T23:15:53.901Z,13.40
2022-10-13T23:18:20.913Z,13.52
2022-10-13T23:20:47.899Z,13.70
2022-10-13T23:23:14.907Z,13.55
2022-10-13T23:25:41.939Z,12.93
2022-10-13T23:28:09.451Z,12.98
2022-10-13T23:30:37.330Z,12.40
2022-10-13T23:33:04.327Z,12.98
2022-10-13T23:35:31.317Z,13.50
2022-10-13T23:37:58.489Z,14.15
2022-10-13T23:40:25.504Z,12.88
2022-10-13T23:42:52.565Z,12.98
2022-10-13T23:45:19.599Z,12.25
2022-10-13T23:47:46.648Z,11.98
2022-10-13T23:50:13.633Z,13.27
2022-10-13T23:52:40.641Z,12.00
2022-10-13T23:55:08.003Z,13.82
2022-10-13T23:57:35.175Z,13.07
